createdAt,value
2017-11-14T00:06:22.789Z,4.21
2017-11-14T00:16:22.784Z,4.07
2017-11-14T00:26:22.739Z,3.94
2017-11-14T00:36:22.783Z,3.89
2017-11-14T00:46:22.777Z,4.07
2017-11-14T00:56:22.818Z,4.1
2017-11-14T01:06:22.783Z,4.08
2017-11-14T01:16:22.834Z,4.39
2017-11-14T01:26:22.824Z,4.46
2017-11-14T01:36:22.858Z,4.36
2017-11-14T01:46:22.826Z,4.34
2017-11-14T01:56:22.886Z,4.21
2017-11-14T02:06:22.851Z,4.08
2017-11-14T02:16:22.848Z,3.97
2017-11-14T02:26:22.824Z,3.54
2017-11-14T02:36:22.945Z,3.47
2017-11-14T02:46:22.916Z,3.58
2017-11-14T02:56:22.878Z,3.61
2017-11-14T03:06:22.923Z,3.54
2017-11-14T03:16:22.859Z,3.65
2017-11-14T03:26:22.942Z,3.57
2017-11-14T03:36:22.904Z,3.6
2017-11-14T03:46:23.017Z,3.76
2017-11-14T03:56:22.956Z,3.67
2017-11-14T04:06:22.871Z,3.67
2017-11-14T04:16:22.946Z,3.46
2017-11-14T04:26:22.942Z,3.52
2017-11-14T04:36:22.987Z,3.36
2017-11-14T04:46:22.809Z,3.12
2017-11-14T04:56:22.939Z,3.02
2017-11-14T05:06:22.899Z,2.88
2017-11-14T05:16:22.936Z,2.97
2017-11-14T05:26:22.902Z,2.84
2017-11-14T05:36:22.967Z,2.76
2017-11-14T05:46:22.950Z,2.77
2017-11-14T05:56:23.015Z,2.92
2017-11-14T06:06:22.943Z,3.15
2017-11-14T06:16:22.909Z,3.39
2017-11-14T06:26:22.955Z,3.58
2017-11-14T06:36:22.906Z,3.61
2017-11-14T06:46:22.982Z,4.03
2017-11-14T06:56:22.997Z,4.04
2017-11-14T07:06:23.023Z,4.26
2017-11-14T07:16:22.994Z,4.39
2017-11-14T07:26:23.040Z,4.55
2017-11-14T07:36:22.991Z,4.96
2017-11-14T07:46:22.981Z,5.17
2017-11-14T07:56:23.036Z,5.2
2017-11-14T08:06:23.010Z,5.41
2017-11-14T08:16:23.056Z,5.52
2017-11-14T08:26:23.030Z,5.6
2017-11-14T08:36:23.076Z,5.53
2017-11-14T08:46:23.013Z,5.75
2017-11-14T08:56:23.050Z,5.98
2017-11-14T09:06:23.004Z,6.32
2017-11-14T09:16:22.996Z,6.65
2017-11-14T09:26:23.028Z,6.79
2017-11-14T09:36:23.016Z,7.07
2017-11-14T09:46:23.048Z,7.5
2017-11-14T09:56:23.046Z,7.74
2017-11-14T10:06:23.098Z,7.82
2017-11-14T10:16:23.039Z,8.18
2017-11-14T10:26:23.099Z,8.37
2017-11-14T10:36:23.104Z,8.2
2017-11-14T10:46:23.335Z,8.65
2017-11-14T10:56:23.162Z,8.62
2017-11-14T11:06:23.088Z,8.14
2017-11-14T11:16:23.277Z,8.25
2017-11-14T11:26:23.162Z,8.5
2017-11-14T11:36:23.155Z,8.68
2017-11-14T11:46:23.224Z,9.13
2017-11-14T11:56:23.178Z,9.67
2017-11-14T12:06:23.235Z,9.99
2017-11-14T12:16:23.147Z,9.86
2017-11-14T12:26:23.171Z,9.85
2017-11-14T12:36:23.266Z,9.83
2017-11-14T12:46:23.197Z,9.93
2017-11-14T12:56:23.178Z,9.81
2017-11-14T13:06:23.196Z,10.03
2017-11-14T13:16:23.371Z,10.17
2017-11-14T13:26:23.266Z,9.89
2017-11-14T13:36:23.236Z,9.75
2017-11-14T13:46:23.283Z,9.68
2017-11-14T13:56:23.340Z,9.57
2017-11-14T14:06:23.311Z,9.6
2017-11-14T14:16:23.369Z,9.31
2017-11-14T14:26:23.536Z,9.2
2017-11-14T14:36:23.417Z,8.99
2017-11-14T14:46:23.353Z,9.01
2017-11-14T14:56:23.419Z,8.94
2017-11-14T15:06:23.414Z,8.78
2017-11-14T15:16:23.480Z,8.68
2017-11-14T15:26:23.688Z,8.58
2017-11-14T15:36:23.375Z,8.63
2017-11-14T15:46:23.903Z,8.54
2017-11-14T15:56:23.395Z,8.47
2017-11-14T16:06:23.857Z,8.45
2017-11-14T16:16:23.625Z,8.22
2017-11-14T16:26:23.426Z,8.26
2017-11-14T16:36:23.810Z,8.21
2017-11-14T16:46:23.508Z,8.3
2017-11-14T16:56:23.529Z,8.5
2017-11-14T17:06:23.693Z,8.53
2017-11-14T17:16:23.415Z,8.57
2017-11-14T17:26:23.443Z,8.57
2017-11-14T17:36:23.548Z,8.51
2017-11-14T17:46:23.445Z,8.4
2017-11-14T17:56:23.454Z,8.58
2017-11-14T18:06:24.446Z,8.63
2017-11-14T18:16:24.266Z,8.45
2017-11-14T18:26:23.918Z,8.28
2017-11-14T18:36:23.717Z,8.21
2017-11-14T18:46:23.700Z,8.35
2017-11-14T18:56:24.046Z,8.36
2017-11-14T19:06:24.121Z,8.26
2017-11-14T19:16:23.734Z,8.35
2017-11-14T19:26:24.447Z,8.4
2017-11-14T19:36:24.773Z,8.4
2017-11-14T19:46:24.964Z,8.54
2017-11-14T19:56:36.706Z,8.3
2017-11-14T20:06:24.202Z,8.44
2017-11-14T20:16:24.875Z,8.5
2017-11-14T20:26:25.322Z,8.5
2017-11-14T20:36:24.377Z,8.53
2017-11-14T20:46:24.022Z,8.58
2017-11-14T20:56:23.873Z,8.6
2017-11-14T21:06:24.503Z,8.58
2017-11-14T21:16:26.367Z,8.6
2017-11-14T21:26:25.551Z,8.55
2017-11-14T21:36:23.758Z,8.51
2017-11-14T21:46:25.221Z,8.58
2017-11-14T21:56:23.767Z,8.68
2017-11-14T22:06:35.513Z,8.66
2017-11-14T22:16:25.842Z,8.63
2017-11-14T22:26:23.690Z,8.6
2017-11-14T22:36:24.092Z,8.73
2017-11-14T22:46:23.730Z,8.73
2017-11-14T22:56:23.790Z,8.71
2017-11-14T23:06:23.799Z,8.79
2017-11-14T23:16:23.730Z,8.87
2017-11-14T23:26:23.778Z,8.78
2017-11-14T23:36:23.751Z,8.87
2017-11-14T23:46:23.773Z,8.84
2017-11-14T23:56:23.804Z,8.94
